Time;durP1;ratioP1;P1;durP2;ratioP2;P2;SDS_P1;SDS_P2;PMS_P1;PMS_P2;Temp;Humidity;BMP_temperature;BMP_pressure;BME280_temperature;BME280_humidity;BME280_pressure;Samples;Min_cycle;Max_cycle;Signal;HPM_P1;HPM_P2
2022/06/17 00:01:47;;;;;;;13.80;13.40;;;24.20;56.10;;;;;;5061213;28;20904;-64
2022/06/17 00:04:14;;;;;;;13.73;13.30;;;24.20;56.20;;;;;;5072142;28;20530;-66
2022/06/17 00:06:43;;;;;;;14.30;13.80;;;24.20;56.20;;;;;;5067826;28;20471;-64
2022/06/17 00:09:14;;;;;;;14.27;13.77;;;24.20;56.40;;;;;;5052309;28;20444;-66
2022/06/17 00:11:42;;;;;;;15.03;14.20;;;24.20;56.60;;;;;;5059526;28;20486;-65
2022/06/17 00:14:14;;;;;;;14.00;13.50;;;24.10;56.60;;;;;;5054384;28;20539;-64
2022/06/17 00:16:41;;;;;;;14.97;14.40;;;24.10;56.50;;;;;;5052498;28;20523;-67
2022/06/17 00:19:08;;;;;;;15.30;14.80;;;24.10;56.50;;;;;;5067970;28;20528;-64
2022/06/17 00:21:38;;;;;;;15.70;15.10;;;24.10;56.50;;;;;;5054750;28;20467;-66
2022/06/17 00:24:16;;;;;;;16.37;15.87;;;24.10;56.50;;;;;;5071933;28;20514;-65
2022/06/17 00:26:43;;;;;;;14.70;14.10;;;24.10;56.50;;;;;;5058837;28;20891;-65
2022/06/17 00:29:12;;;;;;;15.60;15.10;;;24.00;56.60;;;;;;5068574;28;20530;-64
2022/06/17 00:31:39;;;;;;;14.90;14.40;;;24.00;56.70;;;;;;5066460;28;20530;-65
2022/06/17 00:34:06;;;;;;;14.97;14.37;;;24.00;56.90;;;;;;5067149;28;20481;-66
2022/06/17 00:36:34;;;;;;;14.97;14.40;;;24.00;57.10;;;;;;5067589;28;20559;-65
2022/06/17 00:39:01;;;;;;;13.63;13.10;;;23.90;57.20;;;;;;5051816;28;20539;-66
2022/06/17 00:41:33;;;;;;;15.13;13.80;;;23.90;57.40;;;;;;5051617;28;20547;-64
2022/06/17 00:44:07;;;;;;;13.90;13.30;;;23.90;57.40;;;;;;5051662;28;20579;-64
2022/06/17 00:46:47;;;;;;;14.97;14.37;;;23.90;58.00;;;;;;5054025;28;20536;-65
2022/06/17 00:49:21;;;;;;;14.90;14.30;;;23.90;57.70;;;;;;5047822;28;20541;-65
2022/06/17 00:51:57;;;;;;;14.83;14.33;;;23.90;57.90;;;;;;5066732;28;20559;-65
2022/06/17 00:54:26;;;;;;;14.27;13.60;;;23.90;57.90;;;;;;5051532;28;20475;-65
2022/06/17 00:56:54;;;;;;;14.30;13.70;;;23.90;58.00;;;;;;5056250;28;20494;-65
2022/06/17 00:59:24;;;;;;;15.20;14.70;;;23.90;58.00;;;;;;5051489;28;20532;-67
2022/06/17 01:01:57;;;;;;;16.80;16.20;;;23.90;58.10;;;;;;5051595;28;20791;-64
2022/06/17 01:04:26;;;;;;;15.23;14.73;;;23.80;58.20;;;;;;5068591;28;20467;-66
2022/06/17 01:07:00;;;;;;;15.10;14.43;;;23.80;58.30;;;;;;5070970;28;20609;-65
2022/06/17 01:12:20;;;;;;;14.37;13.80;;;23.80;58.30;;;;;;5058548;28;20547;-65
2022/06/17 01:14:48;;;;;;;14.87;14.30;;;23.80;58.40;;;;;;5052529;28;20578;-68
2022/06/17 01:17:18;;;;;;;14.23;13.83;;;23.80;58.60;;;;;;5051447;28;20958;-66
2022/06/17 01:19:48;;;;;;;14.33;13.83;;;23.80;58.70;;;;;;5052333;28;20501;-65
2022/06/17 01:22:23;;;;;;;13.53;13.13;;;23.80;58.60;;;;;;5051626;28;20901;-65
2022/06/17 01:24:54;;;;;;;16.67;15.80;;;23.70;58.60;;;;;;5056407;28;20864;-66
2022/06/17 01:27:25;;;;;;;15.20;14.70;;;23.70;58.80;;;;;;5064039;28;20864;-66
2022/06/17 01:29:52;;;;;;;14.03;13.53;;;23.70;59.00;;;;;;5061902;28;20479;-65
2022/06/17 01:32:24;;;;;;;14.33;13.83;;;23.70;59.00;;;;;;5063402;28;20498;-65
2022/06/17 01:34:51;;;;;;;16.77;15.50;;;23.70;59.50;;;;;;5057533;28;20483;-65
2022/06/17 01:37:18;;;;;;;13.90;13.30;;;23.70;59.10;;;;;;5058292;28;20874;-65
2022/06/17 01:39:45;;;;;;;14.13;13.63;;;23.60;59.00;;;;;;5054880;28;20535;-65
2022/06/17 01:42:14;;;;;;;15.30;14.70;;;23.60;59.00;;;;;;5070667;28;20497;-66
2022/06/17 01:44:42;;;;;;;13.70;13.30;;;23.60;59.60;;;;;;5074502;28;20508;-66
2022/06/17 01:47:15;;;;;;;13.93;13.43;;;23.60;59.10;;;;;;5068139;28;20815;-64
2022/06/17 01:49:46;;;;;;;14.00;13.60;;;23.60;59.60;;;;;;5054702;28;20476;-65
2022/06/17 01:52:17;;;;;;;14.40;13.90;;;23.60;59.30;;;;;;5062470;28;20938;-67
2022/06/17 01:54:49;;;;;;;14.07;13.57;;;23.60;59.40;;;;;;5069367;28;20475;-64
2022/06/17 01:57:23;;;;;;;14.70;14.23;;;23.60;59.90;;;;;;5058148;28;20969;-65
2022/06/17 01:59:53;;;;;;;14.67;14.07;;;23.60;59.50;;;;;;5057603;28;20483;-66
2022/06/17 02:02:22;;;;;;;14.57;14.07;;;23.50;59.50;;;;;;5067408;28;20491;-65
2022/06/17 02:04:53;;;;;;;14.27;13.67;;;23.50;59.50;;;;;;5074625;28;20442;-64
2022/06/17 02:07:26;;;;;;;14.90;14.30;;;23.50;59.60;;;;;;5073914;28;20447;-65
2022/06/17 02:09:52;;;;;;;14.23;13.73;;;23.50;59.50;;;;;;5073667;28;20534;-66
2022/06/17 02:12:22;;;;;;;13.90;13.30;;;23.50;59.50;;;;;;5065166;28;20492;-67
2022/06/17 02:14:49;;;;;;;15.20;14.60;;;23.50;59.50;;;;;;5055324;28;20444;-64
2022/06/17 02:17:16;;;;;;;13.80;13.10;;;23.50;59.50;;;;;;5068381;28;20882;-65
2022/06/17 02:19:46;;;;;;;15.20;14.53;;;23.40;59.60;;;;;;5054173;28;20971;-64
2022/06/17 02:22:19;;;;;;;16.03;15.20;;;23.40;59.60;;;;;;5054654;28;20934;-65
2022/06/17 02:24:50;;;;;;;15.47;14.87;;;23.40;59.70;;;;;;5054165;28;20441;-66
2022/06/17 02:27:18;;;;;;;13.10;12.73;;;23.40;59.80;;;;;;5061809;28;20451;-65
2022/06/17 02:29:48;;;;;;;15.20;14.40;;;23.40;60.20;;;;;;5070453;28;21031;-66
2022/06/17 02:32:15;;;;;;;15.33;14.83;;;23.40;60.60;;;;;;5073628;28;20900;-65
2022/06/17 02:34:49;;;;;;;14.30;13.80;;;23.40;60.70;;;;;;5056826;28;20481;-66
2022/06/17 02:37:18;;;;;;;14.97;14.47;;;23.30;61.10;;;;;;5055090;28;20444;-65
2022/06/17 02:39:48;;;;;;;14.80;14.10;;;23.30;61.60;;;;;;5053754;28;20472;-64
2022/06/17 02:42:20;;;;;;;15.20;14.60;;;23.30;62.00;;;;;;5061936;28;20511;-65
2022/06/17 02:44:53;;;;;;;13.67;13.13;;;23.30;62.60;;;;;;5055148;28;20563;-65
2022/06/17 02:47:21;;;;;;;14.23;13.73;;;23.30;63.20;;;;;;5053695;28;20540;-65
2022/06/17 02:49:48;;;;;;;14.77;14.27;;;23.30;63.40;;;;;;5053864;28;20483;-65
2022/06/17 02:52:19;;;;;;;15.40;14.90;;;23.20;63.50;;;;;;5053886;28;20468;-65
2022/06/17 02:54:51;;;;;;;15.47;14.97;;;23.20;63.90;;;;;;5054780;28;21012;-66
2022/06/17 02:57:22;;;;;;;14.60;14.00;;;23.20;64.40;;;;;;5058052;28;20871;-65
2022/06/17 02:59:59;;;;;;;14.53;13.93;;;23.20;64.70;;;;;;5073412;28;20480;-65
2022/06/17 03:02:28;;;;;;;13.83;13.37;;;23.20;65.30;;;;;;5071086;28;20495;-65
2022/06/17 03:04:55;;;;;;;14.40;13.90;;;23.20;65.80;;;;;;5053416;28;20479;-65
2022/06/17 03:07:27;;;;;;;13.40;12.93;;;23.20;65.90;;;;;;5062461;28;20531;-65
2022/06/17 03:09:54;;;;;;;14.47;13.77;;;23.20;66.20;;;;;;5073255;28;20935;-64
2022/06/17 03:12:23;;;;;;;15.03;14.30;;;23.20;66.50;;;;;;5072952;28;20841;-64
2022/06/17 03:14:56;;;;;;;15.00;14.40;;;23.20;66.80;;;;;;5072420;28;20946;-64
2022/06/17 03:17:25;;;;;;;15.37;14.87;;;23.20;67.00;;;;;;5071438;28;20445;-64
2022/06/17 03:19:55;;;;;;;15.80;15.20;;;23.10;67.20;;;;;;5072953;28;20509;-65
2022/06/17 03:22:25;;;;;;;15.90;14.90;;;23.10;67.60;;;;;;5091221;22;20507;-65
2022/06/17 03:24:58;;;;;;;15.50;14.80;;;23.10;68.20;;;;;;5072193;28;20511;-65
2022/06/17 03:27:36;;;;;;;14.07;13.43;;;23.10;68.50;;;;;;5063035;28;20531;-65
2022/06/17 03:30:05;;;;;;;15.00;14.40;;;23.10;68.80;;;;;;5067154;28;20529;-66
2022/06/17 03:32:36;;;;;;;15.10;14.50;;;23.10;67.20;;;;;;5053751;28;20496;-65
2022/06/17 03:35:03;;;;;;;14.93;14.43;;;23.10;67.00;;;;;;5033073;28;20881;-65
2022/06/17 03:37:38;;;;;;;14.73;14.23;;;23.00;67.90;;;;;;5042892;28;20891;-66
2022/06/17 03:40:13;;;;;;;13.73;13.33;;;23.00;66.60;;;;;;5038395;28;20449;-65
2022/06/17 03:42:48;;;;;;;15.00;14.50;;;22.90;65.90;;;;;;5044048;28;20463;-65
2022/06/17 03:45:21;;;;;;;13.70;13.30;;;22.90;65.00;;;;;;5051797;28;20526;-65
2022/06/17 03:47:53;;;;;;;14.47;13.83;;;22.90;64.90;;;;;;5039673;28;20803;-65
2022/06/17 03:50:24;;;;;;;15.53;14.93;;;22.90;65.60;;;;;;5032543;28;20861;-65
2022/06/17 03:52:57;;;;;;;15.50;15.00;;;22.90;64.50;;;;;;5034661;28;20552;-65
2022/06/17 03:55:24;;;;;;;14.80;14.30;;;22.90;64.30;;;;;;5037467;28;20444;-65
2022/06/17 03:57:53;;;;;;;16.20;15.70;;;22.90;64.30;;;;;;5050658;28;20530;-65
2022/06/17 04:00:27;;;;;;;16.00;15.50;;;22.90;64.40;;;;;;5032664;28;20450;-65
2022/06/17 04:02:55;;;;;;;18.00;17.17;;;22.90;64.40;;;;;;5046832;28;20544;-65
2022/06/17 04:05:22;;;;;;;16.20;15.60;;;22.90;64.30;;;;;;5036768;28;20446;-65
2022/06/17 04:07:50;;;;;;;15.93;15.43;;;22.90;64.40;;;;;;5039526;28;20481;-65
2022/06/17 04:10:21;;;;;;;15.83;15.37;;;22.80;64.30;;;;;;5041910;28;20487;-65
2022/06/17 04:12:50;;;;;;;16.97;16.37;;;22.90;64.40;;;;;;5040192;28;20497;-65
2022/06/17 04:15:37;;;;;;;16.63;16.03;;;22.90;64.50;;;;;;5032022;28;20441;-65
2022/06/17 04:18:04;;;;;;;16.23;15.63;;;22.90;64.80;;;;;;5031866;28;20449;-65
2022/06/17 04:20:40;;;;;;;16.70;16.10;;;22.80;64.90;;;;;;5031622;28;20480;-65
2022/06/17 04:23:12;;;;;;;16.10;15.60;;;22.90;65.10;;;;;;5031589;28;20922;-65
2022/06/17 04:25:45;;;;;;;16.80;16.20;;;22.80;65.00;;;;;;5031776;28;20485;-66
2022/06/17 04:28:16;;;;;;;16.57;15.97;;;22.80;65.30;;;;;;5031673;28;20445;-65
2022/06/17 04:30:46;;;;;;;15.83;15.23;;;23.40;66.00;;;;;;5031404;28;20488;-65
2022/06/17 04:33:23;;;;;;;17.27;16.57;;;22.90;65.40;;;;;;5031225;28;20475;-65
2022/06/17 04:35:53;;;;;;;16.20;15.70;;;22.90;64.90;;;;;;5031688;28;20507;-65
2022/06/17 04:38:20;;;;;;;17.73;17.03;;;22.90;65.40;;;;;;5031459;28;20489;-66
2022/06/17 04:40:54;;;;;;;18.27;17.47;;;23.00;65.10;;;;;;5031491;28;20487;-66
2022/06/17 04:43:29;;;;;;;19.80;18.13;;;23.10;66.50;;;;;;5031271;28;20527;-65
2022/06/17 04:46:01;;;;;;;21.90;20.30;;;23.20;68.90;;;;;;5031494;28;20494;-64
2022/06/17 04:48:28;;;;;;;20.10;18.60;;;23.10;80.40;;;;;;5030959;28;20472;-64
2022/06/17 04:50:54;;;;;;;21.37;20.30;;;23.10;79.30;;;;;;5031087;28;20449;-60
2022/06/17 04:53:22;;;;;;;20.73;19.40;;;23.20;78.60;;;;;;5030850;28;20557;-58
2022/06/17 04:55:49;;;;;;;20.50;19.30;;;23.20;75.90;;;;;;5030165;28;20886;-61
2022/06/17 04:58:17;;;;;;;20.00;19.03;;;23.20;74.40;;;;;;5031263;28;20929;-58
2022/06/17 05:00:46;;;;;;;19.43;18.43;;;23.30;73.80;;;;;;5031318;28;20477;-61
2022/06/17 05:03:15;;;;;;;19.33;18.50;;;23.20;72.90;;;;;;5031335;28;20465;-60
2022/06/17 05:05:44;;;;;;;21.43;20.13;;;23.30;72.40;;;;;;5031468;28;20527;-60
2022/06/17 05:08:16;;;;;;;21.57;20.57;;;23.30;72.30;;;;;;5031523;28;20883;-61
2022/06/17 05:10:48;;;;;;;19.73;18.93;;;23.30;71.50;;;;;;5031210;28;20449;-59
2022/06/17 05:13:20;;;;;;;20.50;19.50;;;23.30;71.40;;;;;;5031415;28;20830;-60
2022/06/17 05:15:47;;;;;;;20.67;19.77;;;23.30;70.80;;;;;;5031401;28;20445;-60
2022/06/17 05:18:17;;;;;;;20.10;19.30;;;23.30;70.40;;;;;;5031428;28;20495;-60
2022/06/17 05:20:45;;;;;;;20.10;19.10;;;23.30;69.70;;;;;;5031193;28;20899;-61
2022/06/17 05:23:16;;;;;;;20.60;19.90;;;23.30;69.60;;;;;;5031153;28;20472;-57
2022/06/17 05:25:46;;;;;;;21.23;20.37;;;23.30;69.30;;;;;;5031285;28;20467;-59
2022/06/17 05:28:15;;;;;;;20.03;19.10;;;23.30;68.80;;;;;;5031328;28;20487;-57
2022/06/17 05:30:44;;;;;;;19.40;18.70;;;23.30;68.40;;;;;;5031060;28;20528;-61
2022/06/17 05:33:13;;;;;;;20.13;19.23;;;23.30;68.20;;;;;;5031182;28;20552;-61
2022/06/17 05:35:42;;;;;;;19.27;18.47;;;23.30;67.90;;;;;;5031230;28;20441;-62
2022/06/17 05:38:09;;;;;;;20.20;19.40;;;23.40;67.90;;;;;;5031052;28;20484;-61
2022/06/17 05:40:37;;;;;;;19.27;18.37;;;23.40;67.60;;;;;;5030923;28;20477;-59
2022/06/17 05:43:04;;;;;;;20.83;19.83;;;23.40;67.40;;;;;;5031199;28;20497;-59
2022/06/17 05:45:32;;;;;;;20.33;19.33;;;23.40;67.20;;;;;;5030991;28;20570;-60
2022/06/17 05:48:00;;;;;;;21.30;20.40;;;23.40;67.10;;;;;;5031182;28;20567;-61
2022/06/17 05:50:28;;;;;;;20.47;19.77;;;23.40;66.80;;;;;;5030863;28;20532;-58
2022/06/17 05:52:59;;;;;;;20.67;19.97;;;23.40;66.60;;;;;;5031021;28;20875;-59
2022/06/17 05:55:28;;;;;;;20.37;19.60;;;23.40;66.50;;;;;;5030972;28;20447;-59
2022/06/17 05:57:55;;;;;;;20.73;19.83;;;23.40;66.30;;;;;;5030980;28;20476;-58
2022/06/17 06:00:24;;;;;;;20.30;19.60;;;23.40;66.10;;;;;;5030682;28;20532;-62
2022/06/17 06:02:55;;;;;;;19.80;19.00;;;23.40;66.00;;;;;;5031014;28;20465;-61
2022/06/17 06:05:24;;;;;;;19.03;18.33;;;23.40;65.80;;;;;;5030868;28;20917;-59
2022/06/17 06:07:51;;;;;;;20.30;19.60;;;23.40;65.50;;;;;;5030827;28;20449;-60
2022/06/17 06:10:19;;;;;;;19.30;18.63;;;23.40;65.50;;;;;;5033554;28;20484;-60
2022/06/17 06:12:57;;;;;;;20.00;19.30;;;23.40;65.50;;;;;;5034443;28;20511;-63
2022/06/17 06:15:26;;;;;;;21.53;20.73;;;23.40;65.20;;;;;;5034430;28;20440;-58
2022/06/17 06:17:53;;;;;;;21.77;20.93;;;23.40;65.20;;;;;;5034355;28;20450;-60
2022/06/17 06:20:20;;;;;;;20.20;19.50;;;23.40;64.90;;;;;;5034166;28;20544;-60
2022/06/17 06:22:47;;;;;;;19.23;18.47;;;23.50;65.00;;;;;;5034170;28;20508;-58
2022/06/17 06:25:16;;;;;;;19.17;18.33;;;23.40;64.90;;;;;;5034139;28;20516;-62
2022/06/17 06:27:44;;;;;;;19.03;18.33;;;23.40;64.80;;;;;;5034187;28;20522;-62
2022/06/17 06:30:18;;;;;;;19.30;18.50;;;23.50;64.70;;;;;;5033987;28;20535;-58
2022/06/17 06:32:50;;;;;;;18.60;18.00;;;23.50;64.70;;;;;;5034053;28;20469;-62
2022/06/17 06:35:18;;;;;;;18.90;18.20;;;23.50;64.60;;;;;;5033996;28;20524;-59
2022/06/17 06:37:44;;;;;;;19.23;18.53;;;23.50;64.40;;;;;;5034094;28;20972;-60
2022/06/17 06:40:12;;;;;;;19.43;18.73;;;23.50;64.50;;;;;;5033726;28;20484;-62
2022/06/17 06:42:39;;;;;;;20.23;19.53;;;23.50;64.50;;;;;;5033765;28;21075;-62
2022/06/17 06:45:13;;;;;;;21.90;20.90;;;23.50;64.20;;;;;;5033835;28;20484;-61
2022/06/17 06:47:41;;;;;;;19.33;18.60;;;23.50;63.90;;;;;;5033873;28;20449;-59
2022/06/17 06:50:12;;;;;;;21.10;20.40;;;23.50;63.90;;;;;;5033768;28;20926;-58
2022/06/17 06:52:39;;;;;;;19.40;18.60;;;23.50;63.80;;;;;;5033631;28;20465;-59
2022/06/17 06:55:06;;;;;;;20.80;20.20;;;23.50;63.90;;;;;;5033624;28;20537;-60
2022/06/17 06:57:33;;;;;;;22.07;21.27;;;23.50;63.90;;;;;;5033583;28;20528;-63
2022/06/17 07:00:02;;;;;;;19.80;19.10;;;23.50;63.90;;;;;;5033587;28;20445;-59
2022/06/17 07:02:30;;;;;;;22.63;21.83;;;23.50;63.80;;;;;;5033324;28;20469;-61
2022/06/17 07:04:57;;;;;;;21.40;20.70;;;23.50;64.40;;;;;;5033328;28;21046;-59
2022/06/17 07:07:23;;;;;;;19.70;18.80;;;23.50;63.80;;;;;;5033420;28;20544;-63
2022/06/17 07:09:51;;;;;;;19.90;19.30;;;23.50;63.80;;;;;;5033346;28;20506;-60
2022/06/17 07:12:17;;;;;;;20.97;20.03;;;23.50;63.70;;;;;;5033405;28;20481;-61
2022/06/17 07:14:44;;;;;;;19.63;18.93;;;23.50;64.30;;;;;;5033374;28;20472;-62
2022/06/17 07:17:12;;;;;;;20.40;19.70;;;23.50;63.60;;;;;;5033352;28;20529;-57
2022/06/17 07:19:40;;;;;;;22.13;21.33;;;23.50;63.20;;;;;;5032976;28;20476;-60
2022/06/17 07:22:07;;;;;;;21.60;20.90;;;23.60;64.20;;;;;;5032912;28;20560;-62
2022/06/17 07:24:35;;;;;;;19.93;19.33;;;23.60;63.30;;;;;;5033083;28;20527;-62
2022/06/17 07:27:02;;;;;;;19.90;19.30;;;23.60;63.10;;;;;;5033011;28;20941;-56
2022/06/17 07:29:28;;;;;;;19.53;18.93;;;23.60;63.30;;;;;;5032939;28;20445;-65
2022/06/17 07:31:55;;;;;;;20.03;19.43;;;23.60;63.10;;;;;;5032827;28;20496;-61
2022/06/17 07:34:22;;;;;;;20.33;19.63;;;23.60;63.10;;;;;;5032942;28;20868;-63
2022/06/17 07:42:19;;;;;;;22.23;21.27;;;23.60;63.80;;;;;;5032813;28;20816;-63
2022/06/17 07:44:45;;;;;;;21.03;20.33;;;23.60;63.10;;;;;;5032582;28;20484;-60
2022/06/17 07:47:16;;;;;;;20.90;20.20;;;23.60;62.90;;;;;;5032721;28;20537;-59
2022/06/17 07:49:43;;;;;;;19.30;18.70;;;23.60;63.00;;;;;;5032406;28;20455;-63
2022/06/17 07:52:12;;;;;;;20.80;20.10;;;23.60;63.70;;;;;;5032511;28;20469;-56
2022/06/17 07:54:39;;;;;;;20.67;20.07;;;23.60;62.90;;;;;;5032485;28;20449;-62
2022/06/17 07:57:07;;;;;;;20.43;19.63;;;23.60;62.70;;;;;;5032596;28;20876;-62
2022/06/17 07:59:34;;;;;;;19.87;19.27;;;23.60;62.90;;;;;;5032318;28;20873;-60
2022/06/17 08:02:01;;;;;;;19.50;18.90;;;23.60;62.60;;;;;;5032334;28;20500;-58
2022/06/17 08:04:28;;;;;;;20.60;19.70;;;23.60;62.40;;;;;;5032298;28;20563;-62
2022/06/17 08:06:55;;;;;;;20.00;19.40;;;23.60;62.50;;;;;;5032243;28;20456;-62
2022/06/17 08:09:24;;;;;;;20.33;19.63;;;23.60;62.40;;;;;;5032311;28;20468;-58
2022/06/17 08:11:51;;;;;;;20.23;19.53;;;23.60;63.20;;;;;;5032236;28;20836;-57
2022/06/17 08:14:18;;;;;;;19.80;19.13;;;23.70;62.30;;;;;;5032245;28;20811;-57
2022/06/17 08:16:46;;;;;;;18.97;18.37;;;23.70;62.30;;;;;;5032163;28;20447;-59
2022/06/17 08:19:14;;;;;;;20.67;19.93;;;23.70;62.50;;;;;;5032241;28;20972;-61
2022/06/17 08:21:40;;;;;;;20.77;20.00;;;23.70;62.70;;;;;;5031551;28;20559;-59
2022/06/17 08:24:08;;;;;;;19.70;19.10;;;23.70;62.50;;;;;;5032008;28;20477;-61
2022/06/17 08:26:36;;;;;;;20.67;19.80;;;23.70;62.40;;;;;;5031848;28;20508;-58
2022/06/17 08:29:03;;;;;;;20.50;19.80;;;23.70;62.20;;;;;;5031918;28;20524;-60
2022/06/17 08:31:31;;;;;;;20.20;19.60;;;23.70;62.30;;;;;;5031036;28;20527;-62
2022/06/17 08:33:57;;;;;;;19.70;19.10;;;23.70;62.10;;;;;;5031908;28;20536;-62
2022/06/17 08:36:27;;;;;;;20.60;20.00;;;23.70;62.10;;;;;;5031657;28;20860;-62
2022/06/17 08:38:59;;;;;;;19.67;19.07;;;23.70;62.10;;;;;;5031852;28;20672;-61
2022/06/17 08:41:28;;;;;;;20.30;19.70;;;23.70;62.10;;;;;;5031425;28;20477;-60
2022/06/17 08:44:28;;;;;;;20.17;19.57;;;23.70;62.00;;;;;;5031712;28;20481;-60
2022/06/17 08:47:20;;;;;;;20.53;19.83;;;23.70;61.90;;;;;;5031669;28;20449;-62
2022/06/17 08:50:01;;;;;;;20.30;19.70;;;23.80;62.10;;;;;;5031562;28;21028;-62
2022/06/17 08:52:44;;;;;;;19.47;18.87;;;23.80;62.10;;;;;;5031442;28;20540;-60
2022/06/17 08:55:18;;;;;;;19.30;18.70;;;23.80;62.00;;;;;;5031599;28;20528;-61
2022/06/17 08:57:55;;;;;;;21.00;20.30;;;23.80;62.00;;;;;;5031630;28;20534;-63
2022/06/17 09:00:33;;;;;;;18.57;17.97;;;23.80;61.80;;;;;;5031344;28;20523;-62
2022/06/17 09:03:16;;;;;;;19.37;18.77;;;23.80;61.80;;;;;;5031522;28;20475;-59
2022/06/17 09:05:52;;;;;;;19.07;18.47;;;23.80;61.90;;;;;;5031367;28;20487;-63
2022/06/17 09:08:44;;;;;;;18.00;17.50;;;23.80;61.90;;;;;;5031591;28;20940;-59
2022/06/17 09:11:21;;;;;;;20.90;20.20;;;23.80;61.80;;;;;;5028082;28;20983;-62
2022/06/17 09:14:03;;;;;;;20.37;19.77;;;23.80;61.80;;;;;;5031463;28;20467;-62
2022/06/17 09:16:39;;;;;;;20.57;19.87;;;23.80;61.70;;;;;;5031383;28;20524;-62
2022/06/17 09:19:08;;;;;;;18.80;18.20;;;23.80;61.60;;;;;;5031380;28;20456;-63
2022/06/17 09:24:06;;;;;;;19.00;18.40;;;23.80;61.50;;;;;;5120685;22;20847;-67
2022/06/17 09:26:39;;;;;;;19.30;18.70;;;23.80;61.50;;;;;;5071254;28;20906;-67
2022/06/17 09:29:10;;;;;;;20.47;19.87;;;23.80;61.40;;;;;;5071259;28;20918;-66
2022/06/17 09:31:46;;;;;;;19.10;18.50;;;23.90;61.50;;;;;;5070934;28;20451;-67
2022/06/17 09:34:18;;;;;;;19.20;18.40;;;23.90;61.40;;;;;;5071215;28;20474;-66
2022/06/17 09:36:49;;;;;;;20.13;19.33;;;23.90;61.40;;;;;;5071177;28;20867;-67
2022/06/17 09:39:21;;;;;;;19.00;18.40;;;23.90;61.20;;;;;;5071190;28;20535;-67
2022/06/17 09:41:53;;;;;;;19.83;19.23;;;23.90;61.10;;;;;;5070886;28;20446;-66
2022/06/17 09:44:25;;;;;;;19.43;18.83;;;23.90;61.90;;;;;;5072742;28;20487;-67
2022/06/17 09:47:02;;;;;;;19.70;19.10;;;23.90;61.10;;;;;;5074844;28;20515;-67
2022/06/17 09:49:36;;;;;;;19.40;18.80;;;23.90;61.00;;;;;;5074627;28;20529;-67
2022/06/17 09:52:09;;;;;;;20.03;19.43;;;23.90;60.90;;;;;;5074690;28;20465;-67
2022/06/17 09:54:41;;;;;;;19.23;18.63;;;23.90;60.80;;;;;;5074822;28;20527;-67
2022/06/17 09:57:13;;;;;;;20.63;20.03;;;23.90;60.80;;;;;;5074720;28;20471;-68
2022/06/17 09:59:43;;;;;;;19.07;18.47;;;23.90;60.70;;;;;;5074544;28;20533;-67
2022/06/17 10:02:20;;;;;;;17.77;17.27;;;23.90;60.80;;;;;;5074564;28;20499;-67
2022/06/17 10:04:47;;;;;;;20.67;19.87;;;23.90;60.70;;;;;;5074444;28;20446;-67
2022/06/17 10:07:22;;;;;;;19.70;19.00;;;24.00;60.60;;;;;;5074600;28;20534;-67
2022/06/17 10:09:59;;;;;;;20.13;19.43;;;24.00;60.50;;;;;;5074317;28;20478;-68
2022/06/17 10:12:37;;;;;;;21.13;20.43;;;24.00;60.50;;;;;;5074285;28;20463;-68
2022/06/17 10:15:19;;;;;;;18.70;18.10;;;24.00;60.50;;;;;;5074314;28;20478;-67
2022/06/17 10:20:51;;;;;;;18.17;17.60;;;24.00;60.30;;;;;;5074213;28;20426;-68
2022/06/17 10:23:31;;;;;;;18.80;18.30;;;24.00;60.20;;;;;;5074115;28;20558;-68
2022/06/17 10:26:18;;;;;;;19.37;18.77;;;24.00;60.20;;;;;;5074212;28;20841;-68
2022/06/17 10:29:04;;;;;;;20.27;19.67;;;24.00;60.10;;;;;;5074226;28;20839;-67
2022/06/17 10:31:35;;;;;;;20.33;19.63;;;24.00;60.10;;;;;;5073824;28;20531;-68
2022/06/17 10:34:11;;;;;;;19.33;18.73;;;24.00;60.10;;;;;;5074052;28;20826;-68
2022/06/17 10:36:39;;;;;;;20.20;19.60;;;24.00;60.10;;;;;;5074034;28;20446;-68
2022/06/17 10:39:10;;;;;;;19.43;18.83;;;24.00;60.10;;;;;;5073911;28;20529;-68
2022/06/17 10:41:38;;;;;;;19.60;19.00;;;24.00;60.00;;;;;;5073840;28;20443;-68
2022/06/17 10:44:08;;;;;;;19.70;19.10;;;24.10;60.00;;;;;;5073833;28;20807;-68
2022/06/17 10:46:39;;;;;;;19.57;18.97;;;24.10;60.00;;;;;;5073788;28;20843;-68
2022/06/17 10:49:12;;;;;;;19.60;19.00;;;24.10;60.00;;;;;;5073684;28;20447;-68
2022/06/17 10:51:40;;;;;;;20.73;20.13;;;24.10;59.90;;;;;;5073479;28;20443;-68
2022/06/17 10:54:16;;;;;;;19.50;18.90;;;24.10;59.90;;;;;;5073509;28;20930;-68
2022/06/17 10:56:53;;;;;;;19.53;18.93;;;24.10;59.90;;;;;;5073598;28;20478;-68
2022/06/17 10:59:32;;;;;;;19.40;18.80;;;24.10;59.80;;;;;;5073550;28;20470;-68
2022/06/17 11:01:58;;;;;;;19.10;18.50;;;24.10;59.80;;;;;;5073497;28;20491;-68
2022/06/17 11:04:29;;;;;;;19.90;19.30;;;24.10;60.40;;;;;;5073461;28;20447;-68
2022/06/17 11:07:01;;;;;;;19.73;19.13;;;24.10;59.80;;;;;;5073375;28;21017;-68
2022/06/17 11:09:35;;;;;;;20.50;19.83;;;24.10;59.70;;;;;;5073517;28;20505;-68
2022/06/17 11:12:03;;;;;;;20.03;19.43;;;24.10;59.60;;;;;;5073235;28;20830;-68
2022/06/17 11:14:38;;;;;;;20.80;20.20;;;24.20;59.70;;;;;;5073277;28;20450;-68
2022/06/17 11:17:15;;;;;;;19.60;19.00;;;24.20;59.60;;;;;;5073367;28;20466;-68
2022/06/17 11:19:45;;;;;;;19.90;19.30;;;24.20;59.50;;;;;;5073117;28;20530;-68
2022/06/17 11:22:25;;;;;;;20.90;20.20;;;24.20;59.40;;;;;;5073024;28;20894;-68
2022/06/17 11:24:56;;;;;;;20.30;19.63;;;24.20;59.30;;;;;;5073196;28;20474;-68
2022/06/17 11:27:31;;;;;;;19.27;18.67;;;24.20;59.20;;;;;;5073022;28;20522;-68
2022/06/17 11:30:20;;;;;;;19.97;19.27;;;24.20;59.20;;;;;;5072926;28;20809;-68
2022/06/17 11:32:46;;;;;;;19.50;18.90;;;24.20;59.20;;;;;;5072825;28;20553;-68
2022/06/17 11:35:35;;;;;;;20.53;19.90;;;24.20;59.20;;;;;;5072849;28;20524;-68
2022/06/17 11:38:04;;;;;;;19.60;19.00;;;24.30;59.20;;;;;;5072869;28;20479;-68
2022/06/17 11:40:35;;;;;;;20.43;19.80;;;24.30;59.20;;;;;;5072440;28;20450;-68
2022/06/17 11:43:05;;;;;;;19.87;19.27;;;24.30;59.20;;;;;;5072693;28;20495;-68
2022/06/17 11:45:34;;;;;;;20.47;19.87;;;24.30;59.10;;;;;;5072507;28;20485;-68
2022/06/17 11:48:06;;;;;;;21.13;20.33;;;24.30;59.10;;;;;;5072610;28;20479;-68
2022/06/17 11:50:37;;;;;;;20.97;20.27;;;24.30;59.60;;;;;;5072318;28;20974;-68
2022/06/17 11:53:08;;;;;;;20.40;19.80;;;24.30;58.90;;;;;;5072534;28;20463;-68
2022/06/17 11:55:43;;;;;;;19.60;19.00;;;24.30;58.90;;;;;;5072691;28;20478;-68
2022/06/17 11:58:11;;;;;;;20.90;20.10;;;24.30;58.80;;;;;;5072640;28;20447;-68
2022/06/17 12:00:46;;;;;;;21.07;20.37;;;24.30;58.70;;;;;;5072129;28;20465;-68
2022/06/17 12:03:14;;;;;;;20.87;20.17;;;24.30;58.40;;;;;;5072297;28;20474;-68
2022/06/17 12:05:43;;;;;;;20.60;20.00;;;24.40;58.20;;;;;;5072056;28;20486;-68
2022/06/17 12:08:18;;;;;;;19.43;18.83;;;24.40;58.00;;;;;;5071704;28;20977;-68
2022/06/17 12:10:49;;;;;;;20.10;19.50;;;24.40;58.00;;;;;;5071884;28;20504;-68
2022/06/17 12:13:24;;;;;;;19.83;19.20;;;24.40;57.90;;;;;;5072119;28;20471;-68
2022/06/17 12:15:55;;;;;;;19.60;19.00;;;24.40;58.00;;;;;;5072297;28;20471;-68
2022/06/17 12:18:25;;;;;;;20.50;19.70;;;24.40;57.90;;;;;;5072101;28;20447;-68
2022/06/17 12:21:16;;;;;;;20.20;19.60;;;24.40;58.00;;;;;;5071719;28;20542;-68
2022/06/17 12:23:48;;;;;;;20.67;20.07;;;24.50;58.10;;;;;;5069311;28;21052;-68
2022/06/17 12:26:19;;;;;;;22.30;21.60;;;24.50;58.00;;;;;;5071844;28;20485;-68
2022/06/17 12:28:58;;;;;;;20.47;19.87;;;24.50;57.90;;;;;;5071988;28;20471;-68
2022/06/17 12:31:40;;;;;;;21.37;20.70;;;24.50;57.90;;;;;;5071546;28;20489;-68
2022/06/17 12:34:16;;;;;;;20.70;20.00;;;24.50;57.90;;;;;;5071836;28;20539;-68
2022/06/17 12:36:48;;;;;;;20.50;19.90;;;24.50;57.90;;;;;;5071846;28;20466;-68
2022/06/17 12:39:21;;;;;;;20.90;20.10;;;24.50;57.80;;;;;;5071771;28;20530;-67
2022/06/17 12:41:54;;;;;;;20.17;19.57;;;24.50;57.80;;;;;;5071518;28;20522;-68
2022/06/17 12:44:30;;;;;;;21.37;20.77;;;24.50;57.70;;;;;;5071721;28;20534;-67
2022/06/17 12:47:07;;;;;;;19.90;19.30;;;24.50;57.60;;;;;;5071580;28;20521;-68
2022/06/17 12:55:43;;;;;;;21.30;20.60;;;24.60;57.50;;;;;;5071635;28;20512;-67
2022/06/17 12:58:23;;;;;;;20.70;20.10;;;24.60;57.40;;;;;;5071514;28;20848;-67
2022/06/17 13:00:52;;;;;;;20.10;19.50;;;24.60;57.30;;;;;;5071192;28;20442;-67
2022/06/17 13:03:58;;;;;;;20.50;19.90;;;24.60;57.20;;;;;;5071435;28;20467;-68
2022/06/17 13:06:35;;;;;;;19.67;19.07;;;24.60;57.30;;;;;;5071316;28;20489;-68
2022/06/17 13:09:13;;;;;;;20.30;19.70;;;24.60;57.20;;;;;;5071474;28;20465;-67